createdAt,value
2023-04-18T00:01:53.496Z,3
2023-04-18T00:03:53.744Z,2
2023-04-18T00:05:53.568Z,2
2023-04-18T00:07:53.689Z,2
2023-04-18T00:09:53.760Z,3
2023-04-18T00:11:53.863Z,3
2023-04-18T00:13:53.929Z,2
2023-04-18T00:15:54.017Z,2
2023-04-18T00:17:54.159Z,2
2023-04-18T00:19:54.202Z,2
2023-04-18T00:21:54.287Z,2
2023-04-18T00:23:54.371Z,2
2023-04-18T00:25:54.468Z,4
2023-04-18T00:27:54.555Z,2
2023-04-18T00:30:24.719Z,2
2023-04-18T00:32:24.825Z,2
2023-04-18T00:34:24.911Z,2
2023-04-18T00:36:25.012Z,3
2023-04-18T00:38:25.136Z,3
2023-04-18T00:40:25.224Z,3
2023-04-18T00:42:25.429Z,2
2023-04-18T00:46:25.577Z,2
2023-04-18T00:48:25.669Z,2
2023-04-18T00:50:25.791Z,3
2023-04-18T00:52:25.910Z,2
2023-04-18T00:54:26.037Z,2
2023-04-18T00:56:26.173Z,3
2023-04-18T00:58:26.280Z,3
2023-04-18T01:00:26.363Z,2
2023-04-18T01:02:26.670Z,2
2023-04-18T01:04:26.820Z,3
2023-04-18T01:06:26.718Z,3
2023-04-18T01:08:26.819Z,3
2023-04-18T01:10:26.916Z,3
2023-04-18T01:12:27.009Z,2
2023-04-18T01:14:27.150Z,2
2023-04-18T01:16:27.314Z,2
2023-04-18T01:18:27.369Z,1
2023-04-18T01:20:27.440Z,2
2023-04-18T01:22:27.574Z,3
2023-04-18T01:24:27.668Z,2
2023-04-18T01:26:27.794Z,1
2023-04-18T01:28:27.967Z,2
2023-04-18T01:30:28.019Z,2
2023-04-18T01:32:28.164Z,2
2023-04-18T01:34:28.225Z,2
2023-04-18T01:36:28.370Z,2
2023-04-18T01:40:28.570Z,2
2023-04-18T01:42:28.667Z,2
2023-04-18T01:44:28.785Z,2
2023-04-18T01:46:28.994Z,2
2023-04-18T01:48:29.050Z,2
2023-04-18T01:50:29.109Z,2
2023-04-18T01:52:29.226Z,2
2023-04-18T01:54:29.341Z,2
2023-04-18T01:56:29.456Z,1
2023-04-18T02:00:29.673Z,1
2023-04-18T02:02:30.006Z,1
2023-04-18T02:04:29.883Z,1
2023-04-18T02:06:29.988Z,1
2023-04-18T02:08:30.120Z,1
2023-04-18T02:10:30.260Z,1
2023-04-18T02:12:30.324Z,1
2023-04-18T02:14:30.444Z,2
2023-04-18T02:16:30.614Z,1
2023-04-18T02:18:30.692Z,1
2023-04-18T02:20:30.743Z,1
2023-04-18T02:22:30.880Z,1
2023-04-18T02:24:30.988Z,1
2023-04-18T02:26:31.125Z,1
2023-04-18T02:28:31.182Z,2
2023-04-18T02:30:31.360Z,2
2023-04-18T02:32:31.501Z,1
2023-04-18T02:34:31.623Z,1
2023-04-18T02:36:31.605Z,1
2023-04-18T02:40:31.810Z,2
2023-04-18T02:42:31.943Z,1
2023-04-18T02:44:32.018Z,2
2023-04-18T02:46:32.246Z,1
2023-04-18T02:48:32.304Z,1
2023-04-18T02:50:32.344Z,2
2023-04-18T02:52:32.484Z,2
2023-04-18T02:56:32.771Z,2
2023-04-18T02:58:32.746Z,2
2023-04-18T03:00:32.828Z,2
2023-04-18T03:02:33.071Z,2
2023-04-18T03:04:33.115Z,3
2023-04-18T03:06:33.132Z,3
2023-04-18T03:08:33.258Z,2
2023-04-18T03:10:33.338Z,3
2023-04-18T03:12:33.424Z,2
2023-04-18T03:14:33.601Z,2
2023-04-18T03:16:33.618Z,2
2023-04-18T03:18:33.760Z,2
2023-04-18T03:20:33.820Z,2
2023-04-18T03:24:34.038Z,1
2023-04-18T03:26:34.114Z,1
2023-04-18T03:28:34.212Z,2
2023-04-18T03:30:34.339Z,1
2023-04-18T03:32:34.469Z,1
2023-04-18T03:34:34.557Z,1
2023-04-18T03:36:34.647Z,2
2023-04-18T03:38:34.707Z,1
2023-04-18T03:40:34.843Z,2
2023-04-18T03:42:34.903Z,2
2023-04-18T03:44:35.023Z,1
2023-04-18T03:46:35.213Z,1
2023-04-18T03:48:35.188Z,1
2023-04-18T03:50:35.312Z,3
2023-04-18T03:52:35.410Z,5
2023-04-18T03:54:35.528Z,4
2023-04-18T03:56:35.641Z,6
2023-04-18T03:58:35.799Z,3
2023-04-18T04:00:35.805Z,1
2023-04-18T04:02:36.064Z,2
2023-04-18T04:04:36.042Z,1
2023-04-18T04:06:36.078Z,1
2023-04-18T04:08:36.187Z,1
2023-04-18T04:10:36.272Z,2
2023-04-18T04:12:36.455Z,1
2023-04-18T04:14:36.477Z,1
2023-04-18T04:16:36.615Z,1
2023-04-18T04:18:36.735Z,1
2023-04-18T04:20:36.945Z,1
2023-04-18T04:22:36.832Z,1
2023-04-18T04:24:36.903Z,2
2023-04-18T04:26:36.991Z,2
2023-04-18T04:28:37.135Z,1
2023-04-18T04:30:37.174Z,3
2023-04-18T04:32:37.317Z,3
2023-04-18T04:34:37.389Z,2
2023-04-18T04:36:37.474Z,2
2023-04-18T04:38:37.551Z,3
2023-04-18T04:40:37.651Z,4
2023-04-18T04:42:37.765Z,2
2023-04-18T04:44:37.867Z,2
2023-04-18T04:46:37.976Z,1
2023-04-18T04:48:38.071Z,1
2023-04-18T04:50:38.143Z,1
2023-04-18T04:52:38.235Z,1
2023-04-18T04:54:38.283Z,1
2023-04-18T04:56:38.379Z,1
2023-04-18T04:58:38.483Z,3
2023-04-18T05:00:38.634Z,1
2023-04-18T05:02:38.833Z,2
2023-04-18T05:04:38.822Z,1
2023-04-18T05:06:40.195Z,2
2023-04-18T05:08:38.882Z,2
2023-04-18T05:10:39.007Z,3
2023-04-18T05:14:39.162Z,3
2023-04-18T05:16:39.272Z,3
2023-04-18T05:18:39.570Z,2
2023-04-18T05:20:39.597Z,1
2023-04-18T05:24:39.586Z,1
2023-04-18T05:26:39.675Z,1
2023-04-18T05:30:39.994Z,2
2023-04-18T05:33:10.003Z,2
2023-04-18T05:37:10.259Z,2
2023-04-18T05:39:10.354Z,3
2023-04-18T05:41:10.462Z,3
2023-04-18T05:43:10.571Z,3
2023-04-18T05:45:10.743Z,3
2023-04-18T05:47:10.848Z,3
2023-04-18T05:49:10.922Z,2
2023-04-18T05:51:11.758Z,3
2023-04-18T05:53:11.208Z,2
2023-04-18T05:57:11.535Z,2
2023-04-18T05:59:11.558Z,2
2023-04-18T06:01:11.641Z,2
2023-04-18T06:03:12.078Z,3
2023-04-18T06:07:12.055Z,2
2023-04-18T06:09:12.112Z,2
2023-04-18T06:11:12.200Z,2
2023-04-18T06:13:12.358Z,2
2023-04-18T06:15:12.668Z,2
2023-04-18T06:17:12.592Z,2
2023-04-18T06:19:12.679Z,2
2023-04-18T06:23:12.886Z,2
2023-04-18T06:29:13.277Z,2
2023-04-18T06:31:13.328Z,3
2023-04-18T06:33:13.411Z,3
2023-04-18T06:35:13.531Z,2
2023-04-18T06:37:13.667Z,2
2023-04-18T06:39:13.717Z,1
2023-04-18T06:41:13.913Z,3
2023-04-18T06:43:13.994Z,2
2023-04-18T06:45:14.061Z,2
2023-04-18T06:47:14.190Z,2
2023-04-18T06:49:14.290Z,4
2023-04-18T06:51:14.590Z,3
2023-04-18T06:53:14.515Z,2
2023-04-18T06:55:14.589Z,3
2023-04-18T06:57:14.739Z,2
2023-04-18T06:59:14.985Z,4
2023-04-18T07:01:15.039Z,2
2023-04-18T07:03:15.189Z,3
2023-04-18T07:05:15.105Z,2
2023-04-18T07:07:15.226Z,2
2023-04-18T07:09:15.327Z,2
2023-04-18T07:11:15.349Z,2
2023-04-18T07:13:15.497Z,3
2023-04-18T07:17:15.717Z,2
2023-04-18T07:19:15.794Z,3
2023-04-18T07:21:15.886Z,2
2023-04-18T07:23:16.018Z,2
2023-04-18T07:25:16.198Z,2
2023-04-18T07:27:16.222Z,1
2023-04-18T07:29:16.297Z,2
2023-04-18T07:33:16.536Z,2
2023-04-18T07:35:16.784Z,2
2023-04-18T07:37:16.723Z,4
2023-04-18T07:39:16.813Z,3
2023-04-18T07:41:16.936Z,2
2023-04-18T07:43:17.259Z,2
2023-04-18T07:45:17.132Z,2
2023-04-18T07:49:17.403Z,2
2023-04-18T07:51:17.381Z,2
2023-04-18T07:53:17.476Z,3
2023-04-18T07:55:17.590Z,5
2023-04-18T07:57:17.763Z,5
2023-04-18T07:59:17.812Z,3
2023-04-18T08:01:17.915Z,2
2023-04-18T08:03:18.209Z,2
2023-04-18T08:05:18.217Z,3
2023-04-18T08:07:18.228Z,2
2023-04-18T08:11:18.389Z,2
2023-04-18T08:15:18.590Z,2
2023-04-18T08:17:18.717Z,2
2023-04-18T08:19:18.786Z,1
2023-04-18T08:21:18.900Z,3
2023-04-18T08:23:19.034Z,2
2023-04-18T08:25:19.054Z,2
2023-04-18T08:27:19.146Z,2
2023-04-18T08:31:19.357Z,2
2023-04-18T08:33:19.437Z,4
2023-04-18T08:35:19.560Z,2
2023-04-18T08:37:19.644Z,2
2023-04-18T08:39:19.739Z,3
2023-04-18T08:41:19.841Z,2
2023-04-18T08:43:19.919Z,2
2023-04-18T08:45:20.215Z,2
2023-04-18T08:49:20.223Z,2
2023-04-18T08:51:20.316Z,2
2023-04-18T08:53:20.446Z,4
2023-04-18T08:55:20.512Z,3
2023-04-18T08:57:20.634Z,3
2023-04-18T08:59:20.724Z,3
2023-04-18T09:01:20.853Z,1
2023-04-18T09:03:20.934Z,4
2023-04-18T09:05:20.990Z,1
2023-04-18T09:07:21.159Z,2
2023-04-18T09:09:21.146Z,1
2023-04-18T09:11:21.241Z,2
2023-04-18T09:13:22.451Z,2
2023-04-18T09:15:21.423Z,2
2023-04-18T09:17:21.495Z,2
2023-04-18T09:21:21.665Z,1
2023-04-18T09:23:21.774Z,4
2023-04-18T09:25:21.866Z,1
2023-04-18T09:27:22.072Z,2
2023-04-18T09:29:22.053Z,3
2023-04-18T09:31:22.179Z,2
2023-04-18T09:33:22.215Z,3
2023-04-18T09:35:22.322Z,3
2023-04-18T09:37:22.406Z,3
2023-04-18T09:39:22.489Z,3
2023-04-18T09:41:22.586Z,2
2023-04-18T09:43:22.671Z,2
2023-04-18T09:45:22.822Z,3
2023-04-18T09:47:22.845Z,1
2023-04-18T09:49:22.917Z,2
2023-04-18T09:51:23.022Z,2
2023-04-18T09:55:23.178Z,2
2023-04-18T09:57:23.277Z,2
2023-04-18T09:59:23.344Z,3
2023-04-18T10:01:23.497Z,2
2023-04-18T10:03:23.664Z,2
2023-04-18T10:05:23.605Z,2
2023-04-18T10:07:23.666Z,4
2023-04-18T10:09:53.798Z,3
2023-04-18T10:11:53.886Z,3
2023-04-18T10:13:54.020Z,3
2023-04-18T10:15:54.174Z,3
2023-04-18T10:18:03.721Z,2
2023-04-18T10:19:54.365Z,2
2023-04-18T10:23:54.571Z,2
2023-04-18T10:27:54.844Z,3
2023-04-18T10:29:54.927Z,2
2023-04-18T10:31:55.114Z,3
2023-04-18T10:34:03.966Z,2
2023-04-18T10:35:55.262Z,2
2023-04-18T10:37:55.384Z,2
2023-04-18T10:39:55.540Z,2
2023-04-18T10:41:55.582Z,4
2023-04-18T10:43:55.669Z,2
2023-04-18T10:45:55.798Z,2
2023-04-18T10:47:55.924Z,3
2023-04-18T10:49:55.964Z,3
2023-04-18T10:51:56.064Z,3
2023-04-18T10:53:56.210Z,4
2023-04-18T10:55:56.337Z,3
2023-04-18T10:59:56.523Z,4
2023-04-18T11:01:56.656Z,4
2023-04-18T11:03:56.786Z,4
2023-04-18T11:05:56.852Z,3
2023-04-18T11:07:56.924Z,4
2023-04-18T11:09:57.071Z,4
2023-04-18T11:11:57.162Z,2
2023-04-18T11:13:57.286Z,3
2023-04-18T11:15:57.322Z,3
2023-04-18T11:17:57.624Z,3
2023-04-18T11:19:57.529Z,3
2023-04-18T11:21:57.643Z,3
2023-04-18T11:23:57.934Z,2
2023-04-18T11:25:57.850Z,2
2023-04-18T11:27:57.994Z,2
2023-04-18T11:31:58.900Z,2
2023-04-18T11:33:58.313Z,2
2023-04-18T11:35:58.362Z,3
2023-04-18T11:37:58.465Z,2
2023-04-18T11:39:58.571Z,2
2023-04-18T11:41:58.666Z,3
2023-04-18T11:43:58.765Z,3
2023-04-18T11:45:58.926Z,2
2023-04-18T11:47:59.106Z,2
2023-04-18T11:49:59.172Z,3
2023-04-18T11:51:59.237Z,2
2023-04-18T11:53:59.359Z,2
2023-04-18T11:55:59.423Z,2
2023-04-18T11:57:59.521Z,3
2023-04-18T11:59:59.622Z,2
2023-04-18T12:02:08.851Z,2
2023-04-18T12:04:00.102Z,2
2023-04-18T12:06:00.053Z,3
2023-04-18T12:08:00.049Z,2
2023-04-18T12:10:00.152Z,2
2023-04-18T12:12:00.206Z,3
2023-04-18T12:14:01.204Z,8
2023-04-18T12:16:00.429Z,5
2023-04-18T12:18:00.612Z,7
2023-04-18T12:20:00.590Z,4
2023-04-18T12:22:00.766Z,4
2023-04-18T12:24:00.794Z,2
2023-04-18T12:26:00.926Z,2
2023-04-18T12:28:00.976Z,2
2023-04-18T12:30:01.048Z,2
2023-04-18T12:32:01.300Z,2
2023-04-18T12:34:01.273Z,2
2023-04-18T12:36:01.329Z,2
2023-04-18T12:38:01.443Z,2
2023-04-18T12:40:01.513Z,3
2023-04-18T12:42:01.626Z,2
2023-04-18T12:44:01.800Z,2
2023-04-18T12:46:01.913Z,2
2023-04-18T12:48:01.898Z,3
2023-04-18T12:50:02.006Z,3
2023-04-18T12:52:02.303Z,3
2023-04-18T12:54:02.168Z,2
2023-04-18T12:56:02.327Z,2
2023-04-18T12:58:02.410Z,2
2023-04-18T13:00:02.435Z,3
2023-04-18T13:02:02.604Z,2
2023-04-18T13:04:11.658Z,3
2023-04-18T13:06:02.744Z,3
2023-04-18T13:08:32.866Z,3
2023-04-18T13:10:32.963Z,4
2023-04-18T13:12:33.068Z,2
2023-04-18T13:14:33.204Z,2
2023-04-18T13:16:33.327Z,2
2023-04-18T13:18:33.437Z,3
2023-04-18T13:22:33.657Z,2
2023-04-18T13:24:33.865Z,4
2023-04-18T13:26:34.022Z,4
2023-04-18T13:28:33.993Z,2
2023-04-18T13:30:34.174Z,3
2023-04-18T13:32:34.271Z,2
2023-04-18T13:34:34.390Z,3
2023-04-18T13:36:34.499Z,4
2023-04-18T13:38:34.572Z,3
2023-04-18T13:40:34.653Z,2
2023-04-18T13:42:34.784Z,4
2023-04-18T13:44:34.961Z,3
2023-04-18T13:46:35.131Z,2
2023-04-18T13:48:35.169Z,2
2023-04-18T13:50:35.267Z,3
2023-04-18T13:52:35.341Z,3
2023-04-18T13:54:35.435Z,2
2023-04-18T13:58:35.621Z,2
2023-04-18T14:00:35.747Z,2
2023-04-18T14:02:35.966Z,3
2023-04-18T14:04:36.087Z,2
2023-04-18T14:06:36.054Z,2
2023-04-18T14:08:36.261Z,4
2023-04-18T14:10:36.351Z,3
2023-04-18T14:12:36.431Z,2
2023-04-18T14:14:36.516Z,3
2023-04-18T14:16:36.606Z,4
2023-04-18T14:18:36.704Z,3
2023-04-18T14:22:37.002Z,4
2023-04-18T14:26:37.102Z,3
2023-04-18T14:28:37.265Z,3
2023-04-18T14:30:37.339Z,3
2023-04-18T14:32:37.456Z,2
2023-04-18T14:34:38.850Z,3
2023-04-18T14:38:37.745Z,3
2023-04-18T14:40:37.843Z,3
2023-04-18T14:42:37.944Z,2
2023-04-18T14:44:38.051Z,2
2023-04-18T14:46:38.190Z,4
2023-04-18T14:48:38.229Z,2
2023-04-18T14:50:38.369Z,2
2023-04-18T14:54:38.530Z,2
2023-04-18T14:56:38.607Z,3
2023-04-18T14:58:38.696Z,2
2023-04-18T15:00:38.817Z,4
2023-04-18T15:02:39.076Z,3
2023-04-18T15:04:39.013Z,3
2023-04-18T15:06:39.103Z,3
2023-04-18T15:08:39.196Z,4
2023-04-18T15:10:39.252Z,4
2023-04-18T15:12:39.425Z,4
2023-04-18T15:14:39.495Z,3
2023-04-18T15:16:39.609Z,2
2023-04-18T15:18:39.673Z,3
2023-04-18T15:20:39.743Z,3
2023-04-18T15:22:39.840Z,2
2023-04-18T15:24:39.914Z,3
2023-04-18T15:26:40.010Z,3
2023-04-18T15:28:40.117Z,2
2023-04-18T15:30:40.227Z,3
2023-04-18T15:32:40.350Z,2
2023-04-18T15:34:40.385Z,2
2023-04-18T15:36:40.464Z,3
2023-04-18T15:38:40.580Z,4
2023-04-18T15:40:40.724Z,4
2023-04-18T15:42:40.752Z,3
2023-04-18T15:44:40.841Z,3
2023-04-18T15:46:41.102Z,4
2023-04-18T15:48:41.034Z,3
2023-04-18T15:50:41.090Z,3
2023-04-18T15:52:41.170Z,3
2023-04-18T15:54:41.269Z,4
2023-04-18T15:56:41.371Z,5
2023-04-18T15:58:41.439Z,3
2023-04-18T16:00:41.580Z,4
2023-04-18T16:02:41.724Z,3
2023-04-18T16:04:41.766Z,5
2023-04-18T16:07:11.873Z,3
2023-04-18T16:09:11.974Z,3
2023-04-18T16:11:12.096Z,4
2023-04-18T16:13:12.204Z,5
2023-04-18T16:15:12.349Z,5
2023-04-18T16:17:12.518Z,5
2023-04-18T16:19:12.608Z,5
2023-04-18T16:21:12.712Z,4
2023-04-18T16:23:12.835Z,4
2023-04-18T16:25:12.954Z,5
2023-04-18T16:27:13.056Z,5
2023-04-18T16:29:13.182Z,4
2023-04-18T16:31:13.300Z,5
2023-04-18T16:33:13.520Z,6
2023-04-18T16:35:13.542Z,6
2023-04-18T16:37:13.745Z,5
2023-04-18T16:39:13.741Z,5
2023-04-18T16:41:13.861Z,6
2023-04-18T16:43:13.959Z,8
2023-04-18T16:45:14.116Z,8
2023-04-18T16:47:14.183Z,11
2023-04-18T16:49:14.308Z,8
2023-04-18T16:53:14.548Z,7
2023-04-18T16:55:14.642Z,4
2023-04-18T16:57:14.754Z,4
2023-04-18T16:59:14.921Z,5
2023-04-18T17:01:15.025Z,3
2023-04-18T17:03:15.128Z,3
2023-04-18T17:05:15.160Z,8
2023-04-18T17:07:15.297Z,4
2023-04-18T17:09:15.534Z,4
2023-04-18T17:11:15.501Z,6
2023-04-18T17:13:15.609Z,8
2023-04-18T17:15:15.848Z,6
2023-04-18T17:17:15.842Z,6
2023-04-18T17:19:16.126Z,5
2023-04-18T17:21:16.058Z,5
2023-04-18T17:23:16.149Z,6
2023-04-18T17:25:16.317Z,8
2023-04-18T17:27:16.387Z,7
2023-04-18T17:29:16.718Z,13
2023-04-18T17:31:16.640Z,11
2023-04-18T17:33:16.722Z,10
2023-04-18T17:35:16.846Z,11
2023-04-18T17:37:16.909Z,11
2023-04-18T17:39:16.991Z,6
2023-04-18T17:41:17.114Z,6
2023-04-18T17:43:17.346Z,5
2023-04-18T17:45:17.264Z,5
2023-04-18T17:47:17.439Z,5
2023-04-18T17:49:17.473Z,5
2023-04-18T17:51:17.669Z,7
2023-04-18T17:53:17.688Z,7
2023-04-18T17:55:17.778Z,5
2023-04-18T17:57:17.891Z,7
2023-04-18T17:59:18.000Z,6
2023-04-18T18:01:18.108Z,7
2023-04-18T18:03:18.297Z,6
2023-04-18T18:05:18.277Z,7
2023-04-18T18:07:18.421Z,6
2023-04-18T18:09:18.539Z,9
2023-04-18T18:11:18.586Z,14
2023-04-18T18:13:18.698Z,13
2023-04-18T18:15:18.816Z,30
2023-04-18T18:17:18.895Z,32
2023-04-18T18:19:19.034Z,28
2023-04-18T18:21:19.077Z,24
2023-04-18T18:23:19.150Z,23
2023-04-18T18:25:19.289Z,16
2023-04-18T18:27:19.366Z,15
2023-04-18T18:29:19.487Z,12
2023-04-18T18:31:19.608Z,10
2023-04-18T18:33:19.665Z,11
2023-04-18T18:35:19.827Z,11
2023-04-18T18:37:19.831Z,11
2023-04-18T18:39:19.923Z,14
2023-04-18T18:41:20.045Z,20
2023-04-18T18:43:20.194Z,16
2023-04-18T18:45:20.227Z,16
2023-04-18T18:47:20.335Z,13
2023-04-18T18:49:20.416Z,15
2023-04-18T18:51:20.504Z,13
2023-04-18T18:53:20.609Z,12
2023-04-18T18:55:20.688Z,9
2023-04-18T18:57:20.833Z,6
2023-04-18T18:59:20.920Z,7
2023-04-18T19:01:20.988Z,7
2023-04-18T19:03:21.271Z,7
2023-04-18T19:05:21.214Z,9
2023-04-18T19:07:21.284Z,9
2023-04-18T19:09:21.411Z,9
2023-04-18T19:11:21.490Z,8
2023-04-18T19:13:21.595Z,12
2023-04-18T19:15:21.680Z,9
2023-04-18T19:17:21.834Z,11
2023-04-18T19:19:21.886Z,9
2023-04-18T19:21:21.943Z,10
2023-04-18T19:23:22.073Z,8
2023-04-18T19:25:22.132Z,8
2023-04-18T19:27:22.249Z,12
2023-04-18T19:29:22.351Z,11
2023-04-18T19:31:22.479Z,8
2023-04-18T19:33:22.500Z,8
2023-04-18T19:35:22.604Z,7
2023-04-18T19:37:22.708Z,5
2023-04-18T19:39:22.795Z,7
2023-04-18T19:41:22.900Z,6
2023-04-18T19:43:22.971Z,7
2023-04-18T19:45:23.058Z,10
2023-04-18T19:47:23.179Z,10
2023-04-18T19:49:23.269Z,9
2023-04-18T19:51:23.352Z,8
2023-04-18T19:53:23.422Z,10
2023-04-18T19:55:23.489Z,8
2023-04-18T19:57:23.587Z,7
2023-04-18T19:59:23.663Z,8
2023-04-18T20:01:23.821Z,7
2023-04-18T20:03:24.023Z,7
2023-04-18T20:05:24.130Z,6
2023-04-18T20:07:26.160Z,8
2023-04-18T20:09:24.120Z,8
2023-04-18T20:11:24.207Z,9
2023-04-18T20:13:24.282Z,8
2023-04-18T20:15:24.407Z,9
2023-04-18T20:17:24.468Z,12
2023-04-18T20:19:24.597Z,12
2023-04-18T20:21:24.633Z,13
2023-04-18T20:23:24.745Z,13
2023-04-18T20:25:24.808Z,12
2023-04-18T20:27:24.883Z,13
2023-04-18T20:29:24.970Z,10
2023-04-18T20:31:55.164Z,12
2023-04-18T20:33:55.246Z,11
2023-04-18T20:35:55.370Z,10
2023-04-18T20:37:55.471Z,10
2023-04-18T20:39:55.589Z,9
2023-04-18T20:41:55.754Z,11
2023-04-18T20:43:55.842Z,11
2023-04-18T20:45:55.962Z,13
2023-04-18T20:47:56.173Z,11
2023-04-18T20:49:56.214Z,14
2023-04-18T20:51:56.289Z,25
2023-04-18T20:53:56.413Z,22
2023-04-18T20:55:56.524Z,28
2023-04-18T20:57:56.631Z,23
2023-04-18T20:59:56.714Z,23
2023-04-18T21:01:56.897Z,17
2023-04-18T21:03:57.124Z,14
2023-04-18T21:05:57.119Z,15
2023-04-18T21:09:57.328Z,14
2023-04-18T21:11:57.420Z,13
2023-04-18T21:13:57.516Z,9
2023-04-18T21:15:57.677Z,8
2023-04-18T21:17:57.802Z,7
2023-04-18T21:19:57.879Z,8
2023-04-18T21:21:57.996Z,6
2023-04-18T21:23:58.071Z,6
2023-04-18T21:25:58.196Z,5
2023-04-18T21:27:58.359Z,7
2023-04-18T21:29:58.425Z,6
2023-04-18T21:31:58.611Z,7
2023-04-18T21:33:58.652Z,8
2023-04-18T21:35:58.760Z,6
2023-04-18T21:37:58.850Z,7
2023-04-18T21:39:58.985Z,7
2023-04-18T21:41:59.075Z,7
2023-04-18T21:43:59.191Z,6
2023-04-18T21:45:59.358Z,6
2023-04-18T21:47:59.456Z,6
2023-04-18T21:49:59.602Z,6
2023-04-18T21:51:59.626Z,6
2023-04-18T21:53:59.844Z,6
2023-04-18T21:55:59.883Z,7
2023-04-18T21:57:59.953Z,7
2023-04-18T22:00:00.064Z,7
2023-04-18T22:04:00.305Z,7
2023-04-18T22:08:00.461Z,8
2023-04-18T22:10:00.576Z,7
2023-04-18T22:12:00.659Z,10
2023-04-18T22:14:00.747Z,8
2023-04-18T22:16:00.882Z,8
2023-04-18T22:18:01.012Z,7
2023-04-18T22:20:01.078Z,8
2023-04-18T22:22:01.203Z,7
2023-04-18T22:24:01.386Z,9
2023-04-18T22:26:01.454Z,11
2023-04-18T22:28:01.609Z,9
2023-04-18T22:30:01.673Z,7
2023-04-18T22:32:01.757Z,8
2023-04-18T22:34:01.849Z,8
2023-04-18T22:36:01.924Z,11
2023-04-18T22:38:02.099Z,11
2023-04-18T22:40:02.171Z,9
2023-04-18T22:42:02.224Z,13
2023-04-18T22:44:02.305Z,17
2023-04-18T22:46:02.475Z,15
2023-04-18T22:48:02.546Z,16
2023-04-18T22:50:02.656Z,16
2023-04-18T22:52:02.818Z,14
2023-04-18T22:54:02.825Z,13
2023-04-18T22:56:02.910Z,12
2023-04-18T22:58:03.009Z,12
2023-04-18T23:00:03.156Z,13
2023-04-18T23:02:03.250Z,12
2023-04-18T23:04:03.499Z,12
2023-04-18T23:06:03.457Z,11
2023-04-18T23:08:03.522Z,12
2023-04-18T23:10:03.600Z,13
2023-04-18T23:12:03.745Z,15
2023-04-18T23:14:03.841Z,15
2023-04-18T23:16:04.021Z,17
2023-04-18T23:18:04.073Z,16
2023-04-18T23:22:04.244Z,19
2023-04-18T23:24:04.342Z,14
2023-04-18T23:26:04.451Z,15
2023-04-18T23:28:04.598Z,13
2023-04-18T23:30:04.639Z,11
2023-04-18T23:32:04.748Z,11
2023-04-18T23:34:04.848Z,12
2023-04-18T23:36:04.938Z,12
2023-04-18T23:38:05.065Z,12
2023-04-18T23:40:05.164Z,9
2023-04-18T23:42:05.225Z,9
2023-04-18T23:44:05.332Z,10
2023-04-18T23:46:05.424Z,9
2023-04-18T23:48:05.512Z,10
2023-04-18T23:50:05.607Z,9
2023-04-18T23:52:07.463Z,9
2023-04-18T23:54:05.792Z,10
2023-04-18T23:56:05.890Z,10
2023-04-18T23:58:06.000Z,10
